createdAt,value
2023-09-17T00:00:22.904Z,4.40
2023-09-17T00:03:11.233Z,4.37
2023-09-17T00:05:59.500Z,4.63
2023-09-17T00:08:47.710Z,4.90
2023-09-17T00:11:36.007Z,5.07
2023-09-17T00:14:25.681Z,5.27
2023-09-17T00:17:14.007Z,4.77
2023-09-17T00:20:02.315Z,9.00
2023-09-17T00:22:50.459Z,7.63
2023-09-17T00:25:38.999Z,4.67
2023-09-17T00:28:27.310Z,8.40
2023-09-17T00:31:17.002Z,5.07
2023-09-17T00:34:05.464Z,6.43
2023-09-17T00:36:53.694Z,4.63
2023-09-17T00:39:41.915Z,4.80
2023-09-17T00:42:30.097Z,5.17
2023-09-17T00:45:18.414Z,5.07
2023-09-17T00:48:09.106Z,5.70
2023-09-17T00:50:57.803Z,5.73
2023-09-17T00:53:46.504Z,5.63
2023-09-17T00:56:34.695Z,4.90
2023-09-17T00:59:22.939Z,4.50
2023-09-17T01:02:11.224Z,5.60
2023-09-17T01:05:01.263Z,4.90
2023-09-17T01:07:50.156Z,5.73
2023-09-17T01:10:41.200Z,5.27
2023-09-17T01:13:30.554Z,4.90
2023-09-17T01:16:18.921Z,4.90
2023-09-17T01:19:08.470Z,6.97
2023-09-17T01:22:04.805Z,10.20
2023-09-17T01:25:05.234Z,5.63
2023-09-17T01:27:54.784Z,5.30
2023-09-17T01:30:43.258Z,7.70
2023-09-17T01:33:31.627Z,6.10
2023-09-17T01:36:23.460Z,5.50
2023-09-17T01:39:15.858Z,5.07
2023-09-17T01:42:05.325Z,5.53
2023-09-17T01:44:55.566Z,7.03
2023-09-17T01:47:44.922Z,8.80
2023-09-17T01:50:33.496Z,11.20
2023-09-17T01:53:21.788Z,7.90
2023-09-17T01:56:09.961Z,9.03
2023-09-17T01:58:58.146Z,7.27
2023-09-17T02:01:47.777Z,5.33
2023-09-17T02:04:36.282Z,5.70
2023-09-17T02:07:24.594Z,6.37
2023-09-17T02:10:13.142Z,10.77
2023-09-17T02:13:01.709Z,7.97
2023-09-17T02:15:50.287Z,8.00
2023-09-17T02:18:39.901Z,7.33
2023-09-17T02:21:28.070Z,6.17
2023-09-17T02:24:16.195Z,5.70
2023-09-17T02:27:04.817Z,5.60
2023-09-17T02:29:52.957Z,5.70
2023-09-17T02:32:41.195Z,5.80
2023-09-17T02:35:30.756Z,8.03
2023-09-17T02:38:19.560Z,13.33
2023-09-17T02:41:07.821Z,7.90
2023-09-17T02:43:56.988Z,6.63
2023-09-17T02:46:45.327Z,7.30
2023-09-17T02:49:33.635Z,6.40
2023-09-17T02:52:23.296Z,6.30
2023-09-17T02:55:11.913Z,7.00
2023-09-17T02:58:00.091Z,7.40
2023-09-17T03:00:48.917Z,8.37
2023-09-17T03:03:38.593Z,9.93
2023-09-17T03:06:26.841Z,8.90
2023-09-17T03:09:17.168Z,10.53
2023-09-17T03:12:05.982Z,8.93
2023-09-17T03:14:54.434Z,11.43
2023-09-17T03:17:43.067Z,9.40
2023-09-17T03:20:34.613Z,8.83
2023-09-17T03:23:23.506Z,11.00
2023-09-17T03:26:13.106Z,9.30
2023-09-17T03:29:02.191Z,10.43
2023-09-17T03:31:50.723Z,9.93
2023-09-17T03:34:40.686Z,8.20
2023-09-17T03:37:28.955Z,8.07
2023-09-17T03:40:17.324Z,9.50
2023-09-17T03:43:07.441Z,10.13
2023-09-17T03:45:55.737Z,8.87
2023-09-17T03:48:44.345Z,12.10
2023-09-17T03:51:33.059Z,9.37
2023-09-17T03:54:21.608Z,8.50
2023-09-17T03:57:10.029Z,11.90
2023-09-17T04:00:00.319Z,9.63
2023-09-17T04:02:50.804Z,10.37
2023-09-17T04:05:39.096Z,8.90
2023-09-17T04:08:27.277Z,9.00
2023-09-17T04:11:17.378Z,9.63
2023-09-17T04:14:06.467Z,8.87
2023-09-17T04:16:56.092Z,13.13
2023-09-17T04:19:44.726Z,8.00
2023-09-17T04:22:33.886Z,8.53
2023-09-17T04:25:22.562Z,11.90
2023-09-17T04:28:13.402Z,8.60
2023-09-17T04:31:01.655Z,8.70
2023-09-17T04:33:52.590Z,10.27
2023-09-17T04:36:41.692Z,9.27
2023-09-17T04:39:30.359Z,9.77
2023-09-17T04:42:20.204Z,13.10
2023-09-17T04:45:11.209Z,12.10
2023-09-17T04:48:00.202Z,8.90
2023-09-17T04:50:50.776Z,12.23
2023-09-17T04:53:39.227Z,8.60
2023-09-17T04:56:27.400Z,9.20
2023-09-17T04:59:15.631Z,8.77
2023-09-17T05:02:04.082Z,10.23
2023-09-17T05:04:52.720Z,8.70
2023-09-17T05:07:42.611Z,9.43
2023-09-17T05:10:31.140Z,9.10
2023-09-17T05:13:19.632Z,9.00
2023-09-17T05:16:08.942Z,11.13
2023-09-17T05:18:57.268Z,9.10
2023-09-17T05:21:45.839Z,10.10
2023-09-17T05:24:35.775Z,8.93
2023-09-17T05:27:24.093Z,9.07
2023-09-17T05:30:13.298Z,17.80
2023-09-17T05:33:01.707Z,7.90
2023-09-17T05:35:49.954Z,11.60
2023-09-17T05:38:38.513Z,8.97
2023-09-17T05:41:28.102Z,7.70
2023-09-17T05:44:16.394Z,12.53
2023-09-17T05:47:05.537Z,8.77
2023-09-17T05:49:56.831Z,8.17
2023-09-17T05:52:46.317Z,8.43
2023-09-17T05:55:34.625Z,9.10
2023-09-17T05:58:24.731Z,8.43
2023-09-17T06:01:12.983Z,9.47
2023-09-17T06:04:01.320Z,7.80
2023-09-17T06:06:50.000Z,12.87
2023-09-17T06:09:38.275Z,9.13
2023-09-17T06:12:26.485Z,8.50
2023-09-17T06:15:16.902Z,9.00
2023-09-17T06:18:05.948Z,13.43
2023-09-17T06:20:54.570Z,12.50
2023-09-17T06:23:42.747Z,10.23
2023-09-17T06:26:30.939Z,12.60
2023-09-17T06:29:19.214Z,10.80
2023-09-17T06:32:09.331Z,11.57
2023-09-17T06:34:57.854Z,17.23
2023-09-17T06:37:46.287Z,16.13
2023-09-17T06:40:34.670Z,12.00
2023-09-17T06:43:23.328Z,18.43
2023-09-17T06:46:11.574Z,12.57
2023-09-17T06:49:01.718Z,14.00
2023-09-17T06:51:50.244Z,12.03
2023-09-17T06:54:38.486Z,11.40
2023-09-17T06:57:26.636Z,16.43
2023-09-17T07:00:16.813Z,11.87
2023-09-17T07:03:05.512Z,11.23
2023-09-17T07:05:55.179Z,10.70
2023-09-17T07:08:43.341Z,10.47
2023-09-17T07:11:31.524Z,11.50
2023-09-17T07:14:19.688Z,11.30
2023-09-17T07:17:07.942Z,19.77
2023-09-17T07:19:56.204Z,9.30
2023-09-17T07:22:45.800Z,13.13
2023-09-17T07:25:34.048Z,14.77
2023-09-17T07:28:22.250Z,11.10
2023-09-17T07:31:12.255Z,9.87
2023-09-17T07:34:00.610Z,9.83
2023-09-17T07:36:49.475Z,9.57
2023-09-17T07:39:39.385Z,9.23
2023-09-17T07:42:27.610Z,9.00
2023-09-17T07:45:15.788Z,9.70
2023-09-17T07:48:04.470Z,9.60
2023-09-17T07:50:57.919Z,9.03
2023-09-17T07:53:46.133Z,12.93
2023-09-17T07:56:35.791Z,8.30
2023-09-17T07:59:24.067Z,8.77
2023-09-17T08:02:12.298Z,8.23
2023-09-17T08:05:00.700Z,9.80
2023-09-17T08:07:49.330Z,8.00
2023-09-17T08:10:38.616Z,7.17
2023-09-17T08:13:28.303Z,7.97
2023-09-17T08:16:17.537Z,10.53
2023-09-17T08:19:06.613Z,8.93
2023-09-17T08:21:54.815Z,6.27
2023-09-17T08:24:43.033Z,8.00
2023-09-17T08:27:31.421Z,5.17
2023-09-17T08:30:21.287Z,5.40
2023-09-17T08:33:11.290Z,6.13
2023-09-17T08:36:01.205Z,4.50
2023-09-17T08:38:50.435Z,4.70
2023-09-17T08:41:39.820Z,4.40
2023-09-17T08:44:29.079Z,5.03
2023-09-17T08:47:18.670Z,4.27
2023-09-17T08:50:09.030Z,4.80
2023-09-17T08:53:01.084Z,4.80
2023-09-17T08:55:50.217Z,4.63
2023-09-17T08:58:40.464Z,5.73
2023-09-17T09:01:28.771Z,4.00
2023-09-17T09:04:18.404Z,5.23
2023-09-17T09:07:07.096Z,4.50
2023-09-17T09:09:55.796Z,6.20
2023-09-17T09:12:44.366Z,3.90
2023-09-17T09:15:32.871Z,4.70
2023-09-17T09:18:21.059Z,5.83
2023-09-17T09:21:11.662Z,3.97
2023-09-17T09:23:59.977Z,3.77
2023-09-17T09:26:48.152Z,4.63
2023-09-17T09:29:36.486Z,5.23
2023-09-17T09:32:25.636Z,3.60
2023-09-17T09:35:13.914Z,4.07
2023-09-17T09:38:04.060Z,4.83
2023-09-17T09:40:52.383Z,5.93
2023-09-17T09:43:41.081Z,5.80
2023-09-17T09:46:29.960Z,4.13
2023-09-17T09:49:18.248Z,5.00
2023-09-17T09:52:06.805Z,3.47
2023-09-17T09:54:56.321Z,2.90
2023-09-17T09:57:44.680Z,3.57
2023-09-17T10:00:33.333Z,5.67
2023-09-17T10:03:23.039Z,4.50
2023-09-17T10:06:11.263Z,2.80
2023-09-17T10:09:02.080Z,5.03
2023-09-17T10:11:51.717Z,2.73
2023-09-17T10:14:40.659Z,3.73
2023-09-17T10:17:30.404Z,2.87
2023-09-17T10:20:19.658Z,3.50
2023-09-17T10:23:10.668Z,3.73
2023-09-17T10:26:00.912Z,4.10
2023-09-17T10:28:52.306Z,3.80
2023-09-17T10:31:41.951Z,2.80
2023-09-17T10:34:31.578Z,4.67
2023-09-17T10:37:22.100Z,5.67
2023-09-17T10:40:11.813Z,5.60
2023-09-17T10:43:03.058Z,3.53
2023-09-17T10:45:54.357Z,5.50
2023-09-17T10:48:43.470Z,4.30
2023-09-17T10:51:31.889Z,5.33
2023-09-17T10:54:20.257Z,2.90
2023-09-17T10:57:13.090Z,7.73
2023-09-17T11:00:05.168Z,3.73
2023-09-17T11:02:57.531Z,5.80
2023-09-17T11:05:45.983Z,5.43
2023-09-17T11:08:34.313Z,9.83
2023-09-17T11:11:24.289Z,4.23
2023-09-17T11:14:15.229Z,6.23
2023-09-17T11:17:05.650Z,2.87
2023-09-17T11:19:55.440Z,8.43
2023-09-17T11:22:44.422Z,3.20
2023-09-17T11:25:36.353Z,5.03
2023-09-17T11:28:35.675Z,9.97
2023-09-17T11:31:24.117Z,5.60
2023-09-17T11:34:12.334Z,4.77
2023-09-17T11:37:02.410Z,5.30
2023-09-17T11:39:51.838Z,7.67
2023-09-17T11:42:41.497Z,4.40
2023-09-17T11:45:29.838Z,5.20
2023-09-17T11:48:18.079Z,4.67
2023-09-17T11:51:19.852Z,13.93
2023-09-17T11:54:12.519Z,6.70
2023-09-17T11:57:00.780Z,8.23
2023-09-17T11:59:48.974Z,5.87
2023-09-17T12:02:37.353Z,4.47
2023-09-17T12:05:25.631Z,9.20
2023-09-17T12:08:13.936Z,5.87
2023-09-17T12:11:08.282Z,7.17
2023-09-17T12:13:58.414Z,4.80
2023-09-17T12:16:48.728Z,8.20
2023-09-17T12:19:39.230Z,7.50
2023-09-17T12:22:27.736Z,9.33
2023-09-17T12:25:20.160Z,6.00
2023-09-17T12:28:09.988Z,6.80
2023-09-17T12:30:58.365Z,6.00
2023-09-17T12:33:46.702Z,14.90
2023-09-17T12:36:34.867Z,4.60
2023-09-17T12:39:24.728Z,10.43
2023-09-17T12:42:13.122Z,8.00
2023-09-17T12:45:02.748Z,6.13
2023-09-17T12:47:51.096Z,5.97
2023-09-17T12:50:43.986Z,7.90
2023-09-17T12:53:32.182Z,9.83
2023-09-17T12:56:20.400Z,14.90
2023-09-17T12:59:08.599Z,8.40
2023-09-17T13:01:59.266Z,8.53
2023-09-17T13:04:47.749Z,22.83
2023-09-17T13:07:38.870Z,22.92
2023-09-17T13:10:27.727Z,18.60
2023-09-17T13:13:16.701Z,48.47
2023-09-17T13:16:06.245Z,50.63
2023-09-17T13:18:57.004Z,68.47
2023-09-17T13:21:45.172Z,25.80
2023-09-17T13:24:34.270Z,105.00
2023-09-17T13:27:22.653Z,93.00
2023-09-17T13:30:11.814Z,75.90
2023-09-17T13:33:01.038Z,14.73
2023-09-17T13:35:52.265Z,4.50
2023-09-17T13:38:42.383Z,2.75
2023-09-17T13:41:30.567Z,6.45
2023-09-17T13:44:18.732Z,4.03
2023-09-17T13:47:10.503Z,2.97
2023-09-17T13:49:59.978Z,6.22
2023-09-17T13:52:49.802Z,7.32
2023-09-17T13:55:38.087Z,7.63
2023-09-17T13:58:26.277Z,3.33
2023-09-17T14:01:14.664Z,11.52
2023-09-17T14:04:04.299Z,4.32
2023-09-17T14:06:56.307Z,9.65
2023-09-17T14:09:45.918Z,7.53
2023-09-17T14:12:34.117Z,6.28
2023-09-17T14:15:23.315Z,6.90
2023-09-17T14:18:12.343Z,10.50
2023-09-17T14:21:01.401Z,6.35
2023-09-17T14:23:49.554Z,3.72
2023-09-17T14:26:39.092Z,4.85
2023-09-17T14:29:27.249Z,6.03
2023-09-17T14:32:15.545Z,9.52
2023-09-17T14:35:04.673Z,9.15
2023-09-17T14:37:52.840Z,4.45
2023-09-17T14:40:41.021Z,4.88
2023-09-17T14:43:31.326Z,6.30
2023-09-17T14:46:19.580Z,5.00
2023-09-17T14:49:07.907Z,5.15
2023-09-17T14:51:56.264Z,4.93
2023-09-17T14:54:44.442Z,3.47
2023-09-17T14:57:37.087Z,5.90
2023-09-17T15:00:26.824Z,8.90
2023-09-17T15:03:15.329Z,7.93
2023-09-17T15:06:03.671Z,6.43
2023-09-17T15:08:52.200Z,6.63
2023-09-17T15:11:41.649Z,5.60
2023-09-17T15:14:29.822Z,8.82
2023-09-17T15:17:19.460Z,8.00
2023-09-17T15:20:08.995Z,5.72
2023-09-17T15:22:59.522Z,7.47
2023-09-17T15:25:47.793Z,7.30
2023-09-17T15:28:36.264Z,9.13
2023-09-17T15:31:25.530Z,5.60
2023-09-17T15:34:15.373Z,6.43
2023-09-17T15:37:04.061Z,4.43
2023-09-17T15:39:52.269Z,8.05
2023-09-17T15:42:40.433Z,4.70
2023-09-17T15:45:28.642Z,8.55
2023-09-17T15:48:16.851Z,5.20
2023-09-17T15:51:07.060Z,8.00
2023-09-17T15:53:55.214Z,9.57
2023-09-17T15:56:43.464Z,6.40
2023-09-17T15:59:31.669Z,6.70
2023-09-17T16:02:21.126Z,11.97
2023-09-17T16:05:09.597Z,8.43
2023-09-17T16:07:59.333Z,8.13
2023-09-17T16:10:47.546Z,6.47
2023-09-17T16:13:36.669Z,8.37
2023-09-17T16:16:25.100Z,8.50
2023-09-17T16:19:15.943Z,6.07
2023-09-17T16:22:04.645Z,14.57
2023-09-17T16:24:54.733Z,7.90
2023-09-17T16:27:43.020Z,10.67
2023-09-17T16:30:31.431Z,25.73
2023-09-17T16:33:19.859Z,6.80
2023-09-17T16:36:08.357Z,7.80
2023-09-17T16:38:58.235Z,11.97
2023-09-17T16:41:47.829Z,12.30
2023-09-17T16:44:36.171Z,19.37
2023-09-17T16:47:24.906Z,7.60
2023-09-17T16:50:13.364Z,10.10
2023-09-17T16:53:01.658Z,4.73
2023-09-17T16:55:49.977Z,11.97
2023-09-17T16:58:39.568Z,6.70
2023-09-17T17:01:27.790Z,9.53
2023-09-17T17:04:16.079Z,9.67
2023-09-17T17:07:04.475Z,8.53
2023-09-17T17:09:52.692Z,12.90
2023-09-17T17:12:40.912Z,7.17
2023-09-17T17:15:30.471Z,14.57
2023-09-17T17:18:19.781Z,11.20
2023-09-17T17:21:08.268Z,6.80
2023-09-17T17:23:56.548Z,10.43
2023-09-17T17:26:45.012Z,14.93
2023-09-17T17:29:33.179Z,10.47
2023-09-17T17:32:22.890Z,10.07
2023-09-17T17:35:11.256Z,12.50
2023-09-17T17:37:59.646Z,7.53
2023-09-17T17:40:48.042Z,16.47
2023-09-17T17:43:38.016Z,9.53
2023-09-17T17:46:26.200Z,8.03
2023-09-17T17:49:15.851Z,9.07
2023-09-17T17:52:04.206Z,8.60
2023-09-17T17:54:53.555Z,7.70
2023-09-17T17:57:41.750Z,12.03
2023-09-17T18:00:29.940Z,6.10
2023-09-17T18:03:18.958Z,6.20
2023-09-17T18:06:08.729Z,11.47
2023-09-17T18:08:57.120Z,6.70
2023-09-17T18:11:45.823Z,16.80
2023-09-17T18:14:34.631Z,25.17
2023-09-17T18:17:23.274Z,33.23
2023-09-17T18:20:13.424Z,27.80
2023-09-17T18:23:03.387Z,34.23
2023-09-17T18:25:51.664Z,25.77
2023-09-17T18:28:39.957Z,18.63
2023-09-17T18:31:28.422Z,15.13
2023-09-17T18:34:16.762Z,14.00
2023-09-17T18:37:07.152Z,13.63
2023-09-17T18:39:57.826Z,10.83
2023-09-17T18:42:46.056Z,13.57
2023-09-17T18:45:34.487Z,10.20
2023-09-17T18:48:23.133Z,9.20
2023-09-17T18:51:11.615Z,7.60
2023-09-17T18:54:00.352Z,10.37
2023-09-17T18:56:49.892Z,8.83
2023-09-17T18:59:38.083Z,9.90
2023-09-17T19:02:26.391Z,11.93
2023-09-17T19:05:14.804Z,13.00
2023-09-17T19:08:03.155Z,10.17
2023-09-17T19:10:51.407Z,12.97
2023-09-17T19:13:41.073Z,12.77
2023-09-17T19:16:29.302Z,9.60
2023-09-17T19:19:17.491Z,10.50
2023-09-17T19:22:10.147Z,15.00
2023-09-17T19:24:58.525Z,6.43
2023-09-17T19:27:46.685Z,8.40
2023-09-17T19:30:36.329Z,9.53
2023-09-17T19:33:24.543Z,7.03
2023-09-17T19:36:12.750Z,12.17
2023-09-17T19:39:00.997Z,10.23
2023-09-17T19:41:49.192Z,15.87
2023-09-17T19:44:39.323Z,10.43
2023-09-17T19:47:28.962Z,8.27
2023-09-17T19:50:17.250Z,11.70
2023-09-17T19:53:05.890Z,10.63
2023-09-17T19:55:54.494Z,11.10
2023-09-17T19:58:42.763Z,5.10
2023-09-17T20:01:30.995Z,8.33
2023-09-17T20:04:20.551Z,7.63
2023-09-17T20:07:08.786Z,5.90
2023-09-17T20:09:57.006Z,9.23
2023-09-17T20:12:47.006Z,9.33
2023-09-17T20:15:35.288Z,9.67
2023-09-17T20:18:23.489Z,8.93
2023-09-17T20:21:13.485Z,5.57
2023-09-17T20:24:01.743Z,8.40
2023-09-17T20:26:50.191Z,10.77
2023-09-17T20:29:38.439Z,4.07
2023-09-17T20:32:26.683Z,6.40
2023-09-17T20:35:14.945Z,9.27
2023-09-17T20:38:04.731Z,4.30
2023-09-17T20:40:52.988Z,6.70
2023-09-17T20:43:41.320Z,9.97
2023-09-17T20:46:29.669Z,6.30
2023-09-17T20:49:17.878Z,13.10
2023-09-17T20:52:06.077Z,6.90
2023-09-17T20:54:55.610Z,9.17
2023-09-17T20:57:43.848Z,7.70
2023-09-17T21:00:32.996Z,7.70
2023-09-17T21:03:21.410Z,7.20
2023-09-17T21:06:09.700Z,9.90
2023-09-17T21:09:00.604Z,4.83
2023-09-17T21:11:51.915Z,5.40
2023-09-17T21:14:40.110Z,6.47
2023-09-17T21:17:28.447Z,3.67
2023-09-17T21:20:20.282Z,7.40
2023-09-17T21:23:09.483Z,8.77
2023-09-17T21:25:57.746Z,3.23
2023-09-17T21:28:47.378Z,3.60
2023-09-17T21:31:35.568Z,4.57
2023-09-17T21:34:23.776Z,5.73
2023-09-17T21:37:12.766Z,4.43
2023-09-17T21:40:01.173Z,4.97
2023-09-17T21:42:49.394Z,4.20
2023-09-17T21:45:38.923Z,4.30
2023-09-17T21:48:27.980Z,4.17
2023-09-17T21:51:16.256Z,3.50
2023-09-17T21:54:04.688Z,6.33
2023-09-17T21:56:52.915Z,3.13
2023-09-17T21:59:41.263Z,4.07
2023-09-17T22:02:30.919Z,3.90
2023-09-17T22:05:20.260Z,3.70
2023-09-17T22:08:09.095Z,3.00
2023-09-17T22:10:57.533Z,5.00
2023-09-17T22:13:45.763Z,6.50
2023-09-17T22:16:36.650Z,3.27
2023-09-17T22:19:27.630Z,6.00
2023-09-17T22:22:15.824Z,3.73
2023-09-17T22:25:04.425Z,3.03
2023-09-17T22:27:54.708Z,3.27
2023-09-17T22:30:43.110Z,6.00
2023-09-17T22:33:31.350Z,4.60
2023-09-17T22:36:22.317Z,3.20
2023-09-17T22:39:10.491Z,3.50
2023-09-17T22:41:58.660Z,3.27
2023-09-17T22:44:46.833Z,5.50
2023-09-17T22:47:35.106Z,4.67
2023-09-17T22:50:23.443Z,3.27
2023-09-17T22:53:13.265Z,6.30
2023-09-17T22:56:01.535Z,2.90
2023-09-17T22:58:50.130Z,4.37
2023-09-17T23:01:39.791Z,4.87
2023-09-17T23:04:28.082Z,3.73
2023-09-17T23:07:16.636Z,3.43
2023-09-17T23:10:07.415Z,3.40
2023-09-17T23:12:55.784Z,6.93
2023-09-17T23:15:44.020Z,5.63
2023-09-17T23:18:33.861Z,4.00
2023-09-17T23:21:22.187Z,4.30
2023-09-17T23:24:10.736Z,2.93
2023-09-17T23:27:00.255Z,5.17
2023-09-17T23:29:49.547Z,5.57
2023-09-17T23:32:37.994Z,6.67
2023-09-17T23:35:26.500Z,6.43
2023-09-17T23:38:14.736Z,3.77
2023-09-17T23:41:03.859Z,4.10
2023-09-17T23:43:53.483Z,4.50
2023-09-17T23:46:41.668Z,3.70
2023-09-17T23:49:29.816Z,4.40
2023-09-17T23:52:17.976Z,7.90
2023-09-17T23:55:07.392Z,3.80
2023-09-17T23:57:55.527Z,6.63
